sensor_id;sensor_type;location;lat;lon;timestamp;temperature;humidity
64918;HTU21D;52176;44.858;38.372;2022-11-14T00:02:01;9.38;82.83
64918;HTU21D;52176;44.858;38.372;2022-11-14T00:04:45;9.36;82.96
64918;HTU21D;52176;44.858;38.372;2022-11-14T00:07:30;9.35;82.88
64918;HTU21D;52176;44.858;38.372;2022-11-14T00:10:14;9.33;83.06
64918;HTU21D;52176;44.858;38.372;2022-11-14T00:12:58;9.31;82.97
64918;HTU21D;52176;44.858;38.372;2022-11-14T00:15:42;9.29;82.94
64918;HTU21D;52176;44.858;38.372;2022-11-14T00:18:27;9.27;82.96
64918;HTU21D;52176;44.858;38.372;2022-11-14T00:21:11;9.26;82.94
64918;HTU21D;52176;44.858;38.372;2022-11-14T00:23:55;9.24;83.10
64918;HTU21D;52176;44.858;38.372;2022-11-14T00:30:14;9.21;83.13
64918;HTU21D;52176;44.858;38.372;2022-11-14T00:32:58;9.19;83.04
64918;HTU21D;52176;44.858;38.372;2022-11-14T00:35:48;9.18;82.92
64918;HTU21D;52176;44.858;38.372;2022-11-14T00:38:33;9.17;82.94
64918;HTU21D;52176;44.858;38.372;2022-11-14T00:41:17;9.17;82.84
64918;HTU21D;52176;44.858;38.372;2022-11-14T00:44:01;9.17;82.80
64918;HTU21D;52176;44.858;38.372;2022-11-14T00:46:46;9.15;82.81
64918;HTU21D;52176;44.858;38.372;2022-11-14T00:49:30;9.15;82.78
64918;HTU21D;52176;44.858;38.372;2022-11-14T00:52:14;9.14;82.72
64918;HTU21D;52176;44.858;38.372;2022-11-14T00:54:58;9.14;82.68
64918;HTU21D;52176;44.858;38.372;2022-11-14T00:57:42;9.12;82.65
64918;HTU21D;52176;44.858;38.372;2022-11-14T01:00:26;9.11;82.62
64918;HTU21D;52176;44.858;38.372;2022-11-14T01:03:11;9.12;82.64
64918;HTU21D;52176;44.858;38.372;2022-11-14T01:05:55;9.10;82.63
64918;HTU21D;52176;44.858;38.372;2022-11-14T01:08:39;9.09;82.62
64918;HTU21D;52176;44.858;38.372;2022-11-14T01:11:23;9.09;82.58
64918;HTU21D;52176;44.858;38.372;2022-11-14T01:14:07;9.06;82.58
64918;HTU21D;52176;44.858;38.372;2022-11-14T01:16:51;9.04;82.59
64918;HTU21D;52176;44.858;38.372;2022-11-14T01:19:35;9.01;82.63
64918;HTU21D;52176;44.858;38.372;2022-11-14T01:22:19;8.98;82.66
64918;HTU21D;52176;44.858;38.372;2022-11-14T01:25:03;8.97;82.63
64918;HTU21D;52176;44.858;38.372;2022-11-14T01:27:48;8.93;82.71
64918;HTU21D;52176;44.858;38.372;2022-11-14T01:30:32;8.89;82.78
64918;HTU21D;52176;44.858;38.372;2022-11-14T01:33:16;8.87;82.83
64918;HTU21D;52176;44.858;38.372;2022-11-14T01:36:00;8.86;82.84
64918;HTU21D;52176;44.858;38.372;2022-11-14T01:38:44;8.85;82.86
64918;HTU21D;52176;44.858;38.372;2022-11-14T01:41:28;8.83;82.88
64918;HTU21D;52176;44.858;38.372;2022-11-14T01:44:17;8.81;82.95
64918;HTU21D;52176;44.858;38.372;2022-11-14T01:47:28;8.80;83.10
64918;HTU21D;52176;44.858;38.372;2022-11-14T01:50:13;8.77;83.07
64918;HTU21D;52176;44.858;38.372;2022-11-14T01:52:58;8.75;83.21
64918;HTU21D;52176;44.858;38.372;2022-11-14T01:55:42;8.72;83.23
64918;HTU21D;52176;44.858;38.372;2022-11-14T01:58:26;8.67;83.20
64918;HTU21D;52176;44.858;38.372;2022-11-14T02:01:11;8.61;83.23
64918;HTU21D;52176;44.858;38.372;2022-11-14T02:03:55;8.55;83.38
64918;HTU21D;52176;44.858;38.372;2022-11-14T02:06:40;8.44;83.50
64918;HTU21D;52176;44.858;38.372;2022-11-14T02:09:25;8.35;83.61
64918;HTU21D;52176;44.858;38.372;2022-11-14T02:15:45;8.16;83.61
64918;HTU21D;52176;44.858;38.372;2022-11-14T02:18:29;8.08;83.62
64918;HTU21D;52176;44.858;38.372;2022-11-14T02:21:13;8.02;83.61
64918;HTU21D;52176;44.858;38.372;2022-11-14T02:23:57;7.98;83.61
64918;HTU21D;52176;44.858;38.372;2022-11-14T02:26:41;7.96;83.64
64918;HTU21D;52176;44.858;38.372;2022-11-14T02:29:26;7.92;83.61
64918;HTU21D;52176;44.858;38.372;2022-11-14T02:32:10;7.89;83.57
64918;HTU21D;52176;44.858;38.372;2022-11-14T02:34:54;7.88;83.62
64918;HTU21D;52176;44.858;38.372;2022-11-14T02:37:39;7.88;83.68
64918;HTU21D;52176;44.858;38.372;2022-11-14T02:40:23;7.85;83.70
64918;HTU21D;52176;44.858;38.372;2022-11-14T02:43:07;7.85;83.77
64918;HTU21D;52176;44.858;38.372;2022-11-14T02:45:52;7.84;83.75
64918;HTU21D;52176;44.858;38.372;2022-11-14T02:48:36;7.84;83.84
64918;HTU21D;52176;44.858;38.372;2022-11-14T02:51:20;7.83;83.87
64918;HTU21D;52176;44.858;38.372;2022-11-14T02:54:04;7.78;83.76
64918;HTU21D;52176;44.858;38.372;2022-11-14T02:56:49;7.73;83.77
64918;HTU21D;52176;44.858;38.372;2022-11-14T02:59:33;7.68;83.73
64918;HTU21D;52176;44.858;38.372;2022-11-14T03:02:18;7.62;83.72
64918;HTU21D;52176;44.858;38.372;2022-11-14T03:05:02;7.57;83.71
64918;HTU21D;52176;44.858;38.372;2022-11-14T03:11:21;7.46;83.87
64918;HTU21D;52176;44.858;38.372;2022-11-14T03:14:05;7.40;83.95
64918;HTU21D;52176;44.858;38.372;2022-11-14T03:16:49;7.32;84.00
64918;HTU21D;52176;44.858;38.372;2022-11-14T03:19:33;7.24;84.22
64918;HTU21D;52176;44.858;38.372;2022-11-14T03:22:17;7.14;84.58
64918;HTU21D;52176;44.858;38.372;2022-11-14T03:25:01;7.08;84.42
64918;HTU21D;52176;44.858;38.372;2022-11-14T03:27:46;7.02;84.48
64918;HTU21D;52176;44.858;38.372;2022-11-14T03:30:31;6.99;84.60
64918;HTU21D;52176;44.858;38.372;2022-11-14T03:33:14;6.96;84.64
64918;HTU21D;52176;44.858;38.372;2022-11-14T03:35:58;6.97;84.60
64918;HTU21D;52176;44.858;38.372;2022-11-14T03:38:43;6.97;84.61
64918;HTU21D;52176;44.858;38.372;2022-11-14T03:41:27;6.97;84.73
64918;HTU21D;52176;44.858;38.372;2022-11-14T03:44:11;6.98;84.64
64918;HTU21D;52176;44.858;38.372;2022-11-14T03:46:55;7.00;84.60
64918;HTU21D;52176;44.858;38.372;2022-11-14T03:49:39;7.00;84.59
64918;HTU21D;52176;44.858;38.372;2022-11-14T03:52:23;7.00;84.64
64918;HTU21D;52176;44.858;38.372;2022-11-14T03:55:09;7.00;84.58
64918;HTU21D;52176;44.858;38.372;2022-11-14T03:57:53;7.00;84.59
64918;HTU21D;52176;44.858;38.372;2022-11-14T04:00:38;7.02;84.53
64918;HTU21D;52176;44.858;38.372;2022-11-14T04:03:22;7.05;84.50
64918;HTU21D;52176;44.858;38.372;2022-11-14T04:06:07;7.08;84.61
64918;HTU21D;52176;44.858;38.372;2022-11-14T04:08:51;7.11;84.55
64918;HTU21D;52176;44.858;38.372;2022-11-14T04:11:35;7.14;84.52
64918;HTU21D;52176;44.858;38.372;2022-11-14T04:14:19;7.16;84.64
64918;HTU21D;52176;44.858;38.372;2022-11-14T04:17:04;7.20;84.90
64918;HTU21D;52176;44.858;38.372;2022-11-14T04:19:47;7.25;84.78
64918;HTU21D;52176;44.858;38.372;2022-11-14T04:22:32;7.29;84.81
64918;HTU21D;52176;44.858;38.372;2022-11-14T04:25:16;7.33;84.79
64918;HTU21D;52176;44.858;38.372;2022-11-14T04:28:01;7.40;84.67
64918;HTU21D;52176;44.858;38.372;2022-11-14T04:30:45;7.43;84.69
64918;HTU21D;52176;44.858;38.372;2022-11-14T04:33:29;7.48;84.71
64918;HTU21D;52176;44.858;38.372;2022-11-14T04:36:13;7.52;84.58
64918;HTU21D;52176;44.858;38.372;2022-11-14T04:38:57;7.57;84.41
64918;HTU21D;52176;44.858;38.372;2022-11-14T04:41:41;7.60;84.54
64918;HTU21D;52176;44.858;38.372;2022-11-14T04:44:26;7.63;84.82
64918;HTU21D;52176;44.858;38.372;2022-11-14T04:47:10;7.69;84.77
64918;HTU21D;52176;44.858;38.372;2022-11-14T04:49:54;7.74;84.72
64918;HTU21D;52176;44.858;38.372;2022-11-14T04:52:38;7.78;84.64
64918;HTU21D;52176;44.858;38.372;2022-11-14T04:55:23;7.83;84.81
64918;HTU21D;52176;44.858;38.372;2022-11-14T04:58:07;7.86;84.77
64918;HTU21D;52176;44.858;38.372;2022-11-14T05:00:51;7.90;85.00
64918;HTU21D;52176;44.858;38.372;2022-11-14T05:03:35;7.96;84.77
64918;HTU21D;52176;44.858;38.372;2022-11-14T05:06:20;8.01;84.73
64918;HTU21D;52176;44.858;38.372;2022-11-14T05:09:04;8.05;84.64
64918;HTU21D;52176;44.858;38.372;2022-11-14T05:11:48;8.11;84.64
64918;HTU21D;52176;44.858;38.372;2022-11-14T05:14:33;8.14;84.50
64918;HTU21D;52176;44.858;38.372;2022-11-14T05:17:17;8.20;84.41
64918;HTU21D;52176;44.858;38.372;2022-11-14T05:20:02;8.29;84.32
64918;HTU21D;52176;44.858;38.372;2022-11-14T05:22:46;8.34;84.26
64918;HTU21D;52176;44.858;38.372;2022-11-14T05:25:30;8.39;84.14
64918;HTU21D;52176;44.858;38.372;2022-11-14T05:28:14;8.47;84.01
64918;HTU21D;52176;44.858;38.372;2022-11-14T05:31:31;8.52;83.92
64918;HTU21D;52176;44.858;38.372;2022-11-14T05:34:09;8.62;83.84
64918;HTU21D;52176;44.858;38.372;2022-11-14T05:36:53;8.68;83.78
64918;HTU21D;52176;44.858;38.372;2022-11-14T05:39:37;8.74;83.71
64918;HTU21D;52176;44.858;38.372;2022-11-14T05:42:22;8.80;83.65
64918;HTU21D;52176;44.858;38.372;2022-11-14T05:45:07;8.88;83.58
64918;HTU21D;52176;44.858;38.372;2022-11-14T05:47:51;8.93;83.51
64918;HTU21D;52176;44.858;38.372;2022-11-14T05:50:39;9.00;83.42
64918;HTU21D;52176;44.858;38.372;2022-11-14T05:53:23;9.05;83.33
64918;HTU21D;52176;44.858;38.372;2022-11-14T05:56:11;9.12;83.28
64918;HTU21D;52176;44.858;38.372;2022-11-14T05:58:55;9.17;83.23
64918;HTU21D;52176;44.858;38.372;2022-11-14T06:01:39;9.21;83.18
64918;HTU21D;52176;44.858;38.372;2022-11-14T06:04:23;9.25;83.18
64918;HTU21D;52176;44.858;38.372;2022-11-14T06:07:07;9.29;83.20
64918;HTU21D;52176;44.858;38.372;2022-11-14T06:09:51;9.34;83.15
64918;HTU21D;52176;44.858;38.372;2022-11-14T06:12:35;9.37;83.39
64918;HTU21D;52176;44.858;38.372;2022-11-14T06:15:19;9.39;83.27
64918;HTU21D;52176;44.858;38.372;2022-11-14T06:18:03;9.45;83.26
64918;HTU21D;52176;44.858;38.372;2022-11-14T06:20:47;9.48;83.21
64918;HTU21D;52176;44.858;38.372;2022-11-14T06:23:31;9.54;83.21
64918;HTU21D;52176;44.858;38.372;2022-11-14T06:26:23;9.59;83.13
64918;HTU21D;52176;44.858;38.372;2022-11-14T06:29:08;9.65;83.07
64918;HTU21D;52176;44.858;38.372;2022-11-14T06:31:53;9.71;83.02
64918;HTU21D;52176;44.858;38.372;2022-11-14T06:34:37;9.79;82.97
64918;HTU21D;52176;44.858;38.372;2022-11-14T06:37:21;9.84;82.91
64918;HTU21D;52176;44.858;38.372;2022-11-14T06:40:06;9.92;82.87
64918;HTU21D;52176;44.858;38.372;2022-11-14T06:42:50;10.00;82.77
64918;HTU21D;52176;44.858;38.372;2022-11-14T06:45:37;10.09;82.70
64918;HTU21D;52176;44.858;38.372;2022-11-14T06:48:22;10.13;82.56
64918;HTU21D;52176;44.858;38.372;2022-11-14T06:51:06;10.22;82.55
64918;HTU21D;52176;44.858;38.372;2022-11-14T06:53:51;10.28;82.46
64918;HTU21D;52176;44.858;38.372;2022-11-14T06:56:36;10.34;82.42
64918;HTU21D;52176;44.858;38.372;2022-11-14T06:59:20;10.39;82.38
64918;HTU21D;52176;44.858;38.372;2022-11-14T07:02:04;10.41;82.32
64918;HTU21D;52176;44.858;38.372;2022-11-14T07:04:48;10.45;82.29
64918;HTU21D;52176;44.858;38.372;2022-11-14T07:07:32;10.50;82.29
64918;HTU21D;52176;44.858;38.372;2022-11-14T07:10:17;10.56;82.23
64918;HTU21D;52176;44.858;38.372;2022-11-14T07:13:01;10.63;82.24
64918;HTU21D;52176;44.858;38.372;2022-11-14T07:15:51;10.72;82.20
64918;HTU21D;52176;44.858;38.372;2022-11-14T07:18:36;10.85;82.06
64918;HTU21D;52176;44.858;38.372;2022-11-14T07:21:20;10.96;81.97
64918;HTU21D;52176;44.858;38.372;2022-11-14T07:24:04;11.09;81.87
64918;HTU21D;52176;44.858;38.372;2022-11-14T07:26:49;11.22;81.71
64918;HTU21D;52176;44.858;38.372;2022-11-14T07:29:33;11.31;81.59
64918;HTU21D;52176;44.858;38.372;2022-11-14T07:32:18;11.43;81.49
64918;HTU21D;52176;44.858;38.372;2022-11-14T07:35:01;11.55;81.39
64918;HTU21D;52176;44.858;38.372;2022-11-14T07:37:46;11.66;81.23
64918;HTU21D;52176;44.858;38.372;2022-11-14T07:40:30;11.71;81.08
64918;HTU21D;52176;44.858;38.372;2022-11-14T07:43:14;11.79;81.07
64918;HTU21D;52176;44.858;38.372;2022-11-14T07:45:58;11.93;81.03
64918;HTU21D;52176;44.858;38.372;2022-11-14T07:48:43;12.07;80.81
64918;HTU21D;52176;44.858;38.372;2022-11-14T07:51:27;12.17;80.68
64918;HTU21D;52176;44.858;38.372;2022-11-14T07:54:12;12.26;80.59
64918;HTU21D;52176;44.858;38.372;2022-11-14T07:56:56;12.34;80.58
64918;HTU21D;52176;44.858;38.372;2022-11-14T07:59:40;12.38;80.49
64918;HTU21D;52176;44.858;38.372;2022-11-14T08:02:24;12.43;80.48
64918;HTU21D;52176;44.858;38.372;2022-11-14T08:05:08;12.48;80.52
64918;HTU21D;52176;44.858;38.372;2022-11-14T08:07:52;12.57;80.49
64918;HTU21D;52176;44.858;38.372;2022-11-14T08:10:36;12.62;80.14
64918;HTU21D;52176;44.858;38.372;2022-11-14T08:13:20;12.69;80.14
64918;HTU21D;52176;44.858;38.372;2022-11-14T08:16:06;12.74;80.09
64918;HTU21D;52176;44.858;38.372;2022-11-14T08:22:25;12.84;80.06
64918;HTU21D;52176;44.858;38.372;2022-11-14T08:25:10;12.88;79.96
64918;HTU21D;52176;44.858;38.372;2022-11-14T08:27:54;12.89;80.01
64918;HTU21D;52176;44.858;38.372;2022-11-14T08:30:38;12.90;80.04
64918;HTU21D;52176;44.858;38.372;2022-11-14T08:33:22;12.95;80.09
64918;HTU21D;52176;44.858;38.372;2022-11-14T08:36:06;13.02;80.04
64918;HTU21D;52176;44.858;38.372;2022-11-14T08:38:51;13.09;79.92
64918;HTU21D;52176;44.858;38.372;2022-11-14T08:41:34;13.16;79.97
64918;HTU21D;52176;44.858;38.372;2022-11-14T08:44:18;13.30;79.91
64918;HTU21D;52176;44.858;38.372;2022-11-14T08:47:03;13.46;79.72
64918;HTU21D;52176;44.858;38.372;2022-11-14T08:49:48;13.65;79.47
64918;HTU21D;52176;44.858;38.372;2022-11-14T08:52:32;13.80;79.21
64918;HTU21D;52176;44.858;38.372;2022-11-14T08:55:16;13.93;79.01
64918;HTU21D;52176;44.858;38.372;2022-11-14T08:58:00;14.07;78.71
64918;HTU21D;52176;44.858;38.372;2022-11-14T09:00:44;14.10;78.53
64918;HTU21D;52176;44.858;38.372;2022-11-14T09:03:28;14.13;78.43
64918;HTU21D;52176;44.858;38.372;2022-11-14T09:06:12;14.13;77.99
64918;HTU21D;52176;44.858;38.372;2022-11-14T09:08:56;14.08;78.30
64918;HTU21D;52176;44.858;38.372;2022-11-14T09:11:41;14.07;78.42
64918;HTU21D;52176;44.858;38.372;2022-11-14T09:14:25;14.08;78.64
64918;HTU21D;52176;44.858;38.372;2022-11-14T09:17:09;14.08;78.59
64918;HTU21D;52176;44.858;38.372;2022-11-14T09:19:54;14.07;78.30
64918;HTU21D;52176;44.858;38.372;2022-11-14T09:22:38;13.98;78.01
64918;HTU21D;52176;44.858;38.372;2022-11-14T09:25:23;13.85;78.24
64918;HTU21D;52176;44.858;38.372;2022-11-14T09:28:09;13.80;78.54
64918;HTU21D;52176;44.858;38.372;2022-11-14T09:30:58;13.81;78.82
64918;HTU21D;52176;44.858;38.372;2022-11-14T09:33:42;13.95;78.78
64918;HTU21D;52176;44.858;38.372;2022-11-14T09:36:26;14.20;77.98
64918;HTU21D;52176;44.858;38.372;2022-11-14T09:39:10;14.23;77.48
64918;HTU21D;52176;44.858;38.372;2022-11-14T09:44:51;14.20;77.88
64918;HTU21D;52176;44.858;38.372;2022-11-14T09:47:47;14.19;78.05
64918;HTU21D;52176;44.858;38.372;2022-11-14T09:50:33;14.14;78.01
64918;HTU21D;52176;44.858;38.372;2022-11-14T09:56:54;14.22;78.32
64918;HTU21D;52176;44.858;38.372;2022-11-14T09:59:38;14.43;78.14
64918;HTU21D;52176;44.858;38.372;2022-11-14T10:11:21;15.11;76.53
64918;HTU21D;52176;44.858;38.372;2022-11-14T10:23:40;14.57;74.94
64918;HTU21D;52176;44.858;38.372;2022-11-14T10:26:26;14.30;75.31
64918;HTU21D;52176;44.858;38.372;2022-11-14T10:35:42;13.66;76.63
64918;HTU21D;52176;44.858;38.372;2022-11-14T10:38:31;13.55;77.21
64918;HTU21D;52176;44.858;38.372;2022-11-14T10:41:16;13.50;77.48
64918;HTU21D;52176;44.858;38.372;2022-11-14T10:44:00;13.48;77.54
64918;HTU21D;52176;44.858;38.372;2022-11-14T10:46:55;13.52;77.29
64918;HTU21D;52176;44.858;38.372;2022-11-14T10:49:42;13.61;77.27
64918;HTU21D;52176;44.858;38.372;2022-11-14T10:52:35;13.75;77.31
64918;HTU21D;52176;44.858;38.372;2022-11-14T10:55:21;13.95;76.76
64918;HTU21D;52176;44.858;38.372;2022-11-14T10:58:10;14.09;75.74
64918;HTU21D;52176;44.858;38.372;2022-11-14T11:01:30;14.19;75.50
64918;HTU21D;52176;44.858;38.372;2022-11-14T11:06:56;14.23;74.95
64918;HTU21D;52176;44.858;38.372;2022-11-14T11:09:41;14.19;74.89
64918;HTU21D;52176;44.858;38.372;2022-11-14T11:12:48;14.04;74.89
64918;HTU21D;52176;44.858;38.372;2022-11-14T11:15:37;13.93;75.48
64918;HTU21D;52176;44.858;38.372;2022-11-14T11:21:13;13.81;75.73
64918;HTU21D;52176;44.858;38.372;2022-11-14T11:23:57;13.82;75.77
64918;HTU21D;52176;44.858;38.372;2022-11-14T11:26:42;13.88;75.99
64918;HTU21D;52176;44.858;38.372;2022-11-14T11:29:26;13.96;75.93
64918;HTU21D;52176;44.858;38.372;2022-11-14T11:32:11;14.00;75.70
64918;HTU21D;52176;44.858;38.372;2022-11-14T11:35:08;14.00;75.56
64918;HTU21D;52176;44.858;38.372;2022-11-14T11:37:55;14.01;75.70
64918;HTU21D;52176;44.858;38.372;2022-11-14T11:40:40;14.04;75.66
64918;HTU21D;52176;44.858;38.372;2022-11-14T11:43:30;14.05;75.63
64918;HTU21D;52176;44.858;38.372;2022-11-14T11:49:34;14.10;75.46
64918;HTU21D;52176;44.858;38.372;2022-11-14T11:58:05;13.96;74.67
64918;HTU21D;52176;44.858;38.372;2022-11-14T12:00:54;13.94;75.44
64918;HTU21D;52176;44.858;38.372;2022-11-14T12:03:40;13.99;75.43
64918;HTU21D;52176;44.858;38.372;2022-11-14T12:06:25;14.04;74.87
64918;HTU21D;52176;44.858;38.372;2022-11-14T12:09:26;14.03;74.73
64918;HTU21D;52176;44.858;38.372;2022-11-14T12:12:50;14.00;75.00
64918;HTU21D;52176;44.858;38.372;2022-11-14T12:30:37;13.22;74.64
64918;HTU21D;52176;44.858;38.372;2022-11-14T12:36:07;12.97;75.69
64918;HTU21D;52176;44.858;38.372;2022-11-14T12:38:53;12.86;75.87
64918;HTU21D;52176;44.858;38.372;2022-11-14T12:41:37;12.76;76.02
64918;HTU21D;52176;44.858;38.372;2022-11-14T12:47:11;12.58;76.28
64918;HTU21D;52176;44.858;38.372;2022-11-14T12:49:57;12.47;76.44
64918;HTU21D;52176;44.858;38.372;2022-11-14T12:52:48;12.37;76.56
64918;HTU21D;52176;44.858;38.372;2022-11-14T13:01:31;12.11;77.02
64918;HTU21D;52176;44.858;38.372;2022-11-14T13:13:29;11.78;77.39
64918;HTU21D;52176;44.858;38.372;2022-11-14T13:16:32;11.69;77.40
64918;HTU21D;52176;44.858;38.372;2022-11-14T13:19:43;11.57;77.49
64918;HTU21D;52176;44.858;38.372;2022-11-14T13:22:47;11.47;77.57
64918;HTU21D;52176;44.858;38.372;2022-11-14T13:25:31;11.39;77.62
64918;HTU21D;52176;44.858;38.372;2022-11-14T13:31:19;11.16;77.78
64918;HTU21D;52176;44.858;38.372;2022-11-14T13:37:14;10.90;77.94
64918;HTU21D;52176;44.858;38.372;2022-11-14T13:51:39;10.29;78.30
64918;HTU21D;52176;44.858;38.372;2022-11-14T13:54:23;10.16;78.35
64918;HTU21D;52176;44.858;38.372;2022-11-14T13:57:18;10.07;78.40
64918;HTU21D;52176;44.858;38.372;2022-11-14T14:15:35;9.27;78.88
64918;HTU21D;52176;44.858;38.372;2022-11-14T14:18:27;9.17;78.95
64918;HTU21D;52176;44.858;38.372;2022-11-14T14:30:36;8.71;79.18
64918;HTU21D;52176;44.858;38.372;2022-11-14T14:33:21;8.63;79.23
64918;HTU21D;52176;44.858;38.372;2022-11-14T14:36:14;8.53;79.26
64918;HTU21D;52176;44.858;38.372;2022-11-14T14:39:16;8.44;79.33
64918;HTU21D;52176;44.858;38.372;2022-11-14T14:42:00;8.35;79.35
64918;HTU21D;52176;44.858;38.372;2022-11-14T14:44:45;8.26;79.39
64918;HTU21D;52176;44.858;38.372;2022-11-14T14:50:20;8.08;79.44
64918;HTU21D;52176;44.858;38.372;2022-11-14T14:53:05;8.00;79.52
64918;HTU21D;52176;44.858;38.372;2022-11-14T14:55:54;7.91;79.55
64918;HTU21D;52176;44.858;38.372;2022-11-14T14:58:38;7.83;79.59
64918;HTU21D;52176;44.858;38.372;2022-11-14T15:01:23;7.74;79.64
64918;HTU21D;52176;44.858;38.372;2022-11-14T15:04:11;7.67;79.67
64918;HTU21D;52176;44.858;38.372;2022-11-14T15:06:56;7.60;79.70
64918;HTU21D;52176;44.858;38.372;2022-11-14T15:09:50;7.54;79.75
64918;HTU21D;52176;44.858;38.372;2022-11-14T15:12:34;7.47;79.75
64918;HTU21D;52176;44.858;38.372;2022-11-14T15:15:19;7.41;79.76
64918;HTU21D;52176;44.858;38.372;2022-11-14T15:18:05;7.33;79.80
64918;HTU21D;52176;44.858;38.372;2022-11-14T15:21:06;7.25;79.78
64918;HTU21D;52176;44.858;38.372;2022-11-14T15:24:01;7.13;79.84
64918;HTU21D;52176;44.858;38.372;2022-11-14T15:26:49;7.01;79.88
64918;HTU21D;52176;44.858;38.372;2022-11-14T15:29:33;6.88;79.91
64918;HTU21D;52176;44.858;38.372;2022-11-14T15:32:18;6.76;79.97
64918;HTU21D;52176;44.858;38.372;2022-11-14T15:38:39;6.53;80.14
64918;HTU21D;52176;44.858;38.372;2022-11-14T15:41:24;6.43;80.19
64918;HTU21D;52176;44.858;38.372;2022-11-14T15:52:50;6.09;80.37
64918;HTU21D;52176;44.858;38.372;2022-11-14T15:55:36;6.04;80.47
64918;HTU21D;52176;44.858;38.372;2022-11-14T15:58:19;6.01;80.47
64918;HTU21D;52176;44.858;38.372;2022-11-14T16:01:03;5.98;80.49
64918;HTU21D;52176;44.858;38.372;2022-11-14T16:03:48;5.93;80.47
64918;HTU21D;52176;44.858;38.372;2022-11-14T16:06:34;5.89;80.55
64918;HTU21D;52176;44.858;38.372;2022-11-14T16:09:19;5.81;80.55
64918;HTU21D;52176;44.858;38.372;2022-11-14T16:12:04;5.74;80.57
64918;HTU21D;52176;44.858;38.372;2022-11-14T16:14:48;5.66;80.58
64918;HTU21D;52176;44.858;38.372;2022-11-14T16:17:36;5.59;80.62
64918;HTU21D;52176;44.858;38.372;2022-11-14T16:23:57;5.45;80.69
64918;HTU21D;52176;44.858;38.372;2022-11-14T16:26:42;5.38;80.69
64918;HTU21D;52176;44.858;38.372;2022-11-14T16:29:26;5.32;80.74
64918;HTU21D;52176;44.858;38.372;2022-11-14T16:32:11;5.25;80.78
64918;HTU21D;52176;44.858;38.372;2022-11-14T16:34:55;5.21;80.81
64918;HTU21D;52176;44.858;38.372;2022-11-14T16:37:40;5.15;80.89
64918;HTU21D;52176;44.858;38.372;2022-11-14T16:40:25;5.08;80.95
64918;HTU21D;52176;44.858;38.372;2022-11-14T16:43:11;5.03;80.98
64918;HTU21D;52176;44.858;38.372;2022-11-14T16:45:56;4.98;80.98
64918;HTU21D;52176;44.858;38.372;2022-11-14T16:48:40;4.93;81.03
64918;HTU21D;52176;44.858;38.372;2022-11-14T16:51:25;4.91;81.01
64918;HTU21D;52176;44.858;38.372;2022-11-14T16:54:10;4.84;81.14
64918;HTU21D;52176;44.858;38.372;2022-11-14T16:56:54;4.81;81.19
64918;HTU21D;52176;44.858;38.372;2022-11-14T16:59:40;4.78;81.34
64918;HTU21D;52176;44.858;38.372;2022-11-14T17:02:25;4.74;81.38
64918;HTU21D;52176;44.858;38.372;2022-11-14T17:05:09;4.69;81.42
64918;HTU21D;52176;44.858;38.372;2022-11-14T17:07:57;4.67;81.37
64918;HTU21D;52176;44.858;38.372;2022-11-14T17:10:41;4.64;81.47
64918;HTU21D;52176;44.858;38.372;2022-11-14T17:13:28;4.61;81.50
64918;HTU21D;52176;44.858;38.372;2022-11-14T17:16:13;4.60;81.55
64918;HTU21D;52176;44.858;38.372;2022-11-14T17:18:57;4.58;81.58
64918;HTU21D;52176;44.858;38.372;2022-11-14T17:21:42;4.56;81.59
64918;HTU21D;52176;44.858;38.372;2022-11-14T17:24:26;4.53;81.64
64918;HTU21D;52176;44.858;38.372;2022-11-14T17:27:10;4.51;81.68
64918;HTU21D;52176;44.858;38.372;2022-11-14T17:29:55;4.51;81.77
64918;HTU21D;52176;44.858;38.372;2022-11-14T17:32:40;4.53;81.75
64918;HTU21D;52176;44.858;38.372;2022-11-14T17:35:25;4.56;81.74
64918;HTU21D;52176;44.858;38.372;2022-11-14T17:38:09;4.61;81.68
64918;HTU21D;52176;44.858;38.372;2022-11-14T17:40:56;4.65;81.68
64918;HTU21D;52176;44.858;38.372;2022-11-14T17:43:41;4.69;81.67
64918;HTU21D;52176;44.858;38.372;2022-11-14T17:46:26;4.74;81.56
64918;HTU21D;52176;44.858;38.372;2022-11-14T17:49:10;4.76;81.47
64918;HTU21D;52176;44.858;38.372;2022-11-14T17:51:54;4.82;81.44
64918;HTU21D;52176;44.858;38.372;2022-11-14T17:54:39;4.86;81.43
64918;HTU21D;52176;44.858;38.372;2022-11-14T17:57:23;4.90;81.43
64918;HTU21D;52176;44.858;38.372;2022-11-14T18:00:08;4.92;81.38
64918;HTU21D;52176;44.858;38.372;2022-11-14T18:02:52;4.93;81.38
64918;HTU21D;52176;44.858;38.372;2022-11-14T18:05:36;4.92;81.48
64918;HTU21D;52176;44.858;38.372;2022-11-14T18:08:20;4.89;81.46
64918;HTU21D;52176;44.858;38.372;2022-11-14T18:11:06;4.84;81.49
64918;HTU21D;52176;44.858;38.372;2022-11-14T18:13:52;0.00;81.58
64918;HTU21D;52176;44.858;38.372;2022-11-14T18:16:36;4.77;81.66
64918;HTU21D;52176;44.858;38.372;2022-11-14T18:19:21;4.74;81.69
64918;HTU21D;52176;44.858;38.372;2022-11-14T18:22:05;4.71;81.68
64918;HTU21D;52176;44.858;38.372;2022-11-14T18:24:50;4.64;81.70
64918;HTU21D;52176;44.858;38.372;2022-11-14T18:27:34;4.61;81.69
64918;HTU21D;52176;44.858;38.372;2022-11-14T18:30:19;4.59;81.73
64918;HTU21D;52176;44.858;38.372;2022-11-14T18:33:03;4.58;81.75
64918;HTU21D;52176;44.858;38.372;2022-11-14T18:35:55;4.54;81.79
64918;HTU21D;52176;44.858;38.372;2022-11-14T18:38:39;4.56;81.79
64918;HTU21D;52176;44.858;38.372;2022-11-14T18:41:24;4.57;81.79
64918;HTU21D;52176;44.858;38.372;2022-11-14T18:44:08;4.57;81.77
64918;HTU21D;52176;44.858;38.372;2022-11-14T18:46:52;4.58;81.71
64918;HTU21D;52176;44.858;38.372;2022-11-14T18:49:37;4.58;81.72
64918;HTU21D;52176;44.858;38.372;2022-11-14T18:52:21;4.56;81.74
64918;HTU21D;52176;44.858;38.372;2022-11-14T18:55:05;4.51;81.75
64918;HTU21D;52176;44.858;38.372;2022-11-14T18:57:51;4.47;81.75
64918;HTU21D;52176;44.858;38.372;2022-11-14T19:00:35;4.39;81.80
64918;HTU21D;52176;44.858;38.372;2022-11-14T19:03:19;4.34;81.84
64918;HTU21D;52176;44.858;38.372;2022-11-14T19:06:04;4.29;81.88
64918;HTU21D;52176;44.858;38.372;2022-11-14T19:08:48;4.23;81.91
64918;HTU21D;52176;44.858;38.372;2022-11-14T19:11:33;4.18;81.91
64918;HTU21D;52176;44.858;38.372;2022-11-14T19:14:36;4.10;82.04
64918;HTU21D;52176;44.858;38.372;2022-11-14T19:17:20;4.07;82.07
64918;HTU21D;52176;44.858;38.372;2022-11-14T19:20:05;4.05;82.08
64918;HTU21D;52176;44.858;38.372;2022-11-14T19:22:50;4.01;82.07
64918;HTU21D;52176;44.858;38.372;2022-11-14T19:25:34;3.95;82.02
64918;HTU21D;52176;44.858;38.372;2022-11-14T19:28:18;3.90;82.05
64918;HTU21D;52176;44.858;38.372;2022-11-14T19:31:07;3.85;82.08
64918;HTU21D;52176;44.858;38.372;2022-11-14T19:33:52;3.83;82.14
64918;HTU21D;52176;44.858;38.372;2022-11-14T19:36:36;3.77;82.13
64918;HTU21D;52176;44.858;38.372;2022-11-14T19:39:20;3.73;82.10
64918;HTU21D;52176;44.858;38.372;2022-11-14T19:42:04;3.69;82.13
64918;HTU21D;52176;44.858;38.372;2022-11-14T19:44:49;3.64;82.13